Hamilton, North Dakota
Current Conditions -  °F | °C
As of 6:15 AM on Sunday 23 Nov 2014 (Local Time) from K2C8 Reporting Station
Clear Clear  
Wind Chill: 24°   Ceiling: Unl
Heat Index: 32°   Visibility: 9mi
Dew Point: 28°   Wind: 9mph
Humidity: 87%   Direction: 220°SW
Pressure: 29.33"   Gusts: NA
Location:  48.81°N, 97.45°W
Report Text: K2C8 231215Z AUTO 22008KT 9SM CLR 00/M02 A2933 RMK AO2
Loading
Personal Weather Stations






























Interactive Weather Map New forecast layout! Learn more

10-Day Weather Forecast

Advertisements
Track Severe Weather on mobile